Ana Sayfa
METAR-TAF:

METAR-TAF

Havaalanları :

Cox Field

Paris, Teksas, Amerika Birleşik Devletleri

Enlem: 33-38N, Boylam: 095-27W, yükseklik: 167 m

Güncel hava durumu gözlemi

Rapor saat 21:36 UTC de 18 dakika önce yapıldı.
Rüzgar güney/güneydoğudan 12 kt ve 18 kt'a kadar ani rüzgarlar
Sıcaklık 28°C
Nem 74%
Basınç 1009 hPa
Görüş mesafesi: 16.1 km
2900 ft yükseklikte parçalı çok bulutlu
3700 ft yükseklikte parçalı çok bulutlu
5500 ft yükseklikte parçalı çok bulutlu

METAR: KPRX 232136Z AUTO 15012G18KT 10SM BKN029 BKN037 BKN055 28/23 A2979 RMK AO2

Saat: 16:54 (21:54 UTC)


TAF: eksik

4.000'den fazla havaalanı için hava durumu gözlemleri ve tahminleri (METAR ve TAF raporları).

Kullanılabilir istasyonlar harita üzerinde sarı ve kırmızı noktalarla gösterilir.

İstasyonun adını görmek için fareyi noktanın üzerinde gezdirin.

Sonrasında hava gözlem ve tahminlerini görmek için tıklayın.

Haritayı değiştirmek için: yaklaştırmak için siyah artı işaretli yeşil düğmeye ve uzaklaştırmak için de eksi işaretli düğmeye hızla tıklayın; bitişik haritalar için yeşil okları kullanın.


METAR-TAF: